Time;durP1;ratioP1;P1;durP2;ratioP2;P2;SDS_P1;SDS_P2;PMS_P1;PMS_P2;Temp;Humidity;BMP_temperature;BMP_pressure;BME280_temperature;BME280_humidity;BME280_pressure;Samples;Min_cycle;Max_cycle;Signal;HPM_P1;HPM_P2
2022/01/07 00:17:02;;;;;;;84.78;58.65;;;;;;;-145.93;100.00;59239.47;4935602;29;20062;-86
2022/01/07 00:20:30;;;;;;;67.20;57.10;;;;;;;-145.93;100.00;59239.47;4908761;29;20060;-86
2022/01/07 00:40:32;;;;;;;78.40;59.63;;;;;;;-145.93;100.00;59239.47;4845135;29;20103;-85
2022/01/07 00:43:51;;;;;;;88.43;60.33;;;;;;;-145.93;100.00;59239.47;4839047;29;20081;-85
2022/01/07 00:46:41;;;;;;;77.28;59.03;;;;;;;-145.93;100.00;59239.47;4935122;29;20035;-86
2022/01/07 00:49:20;;;;;;;70.07;57.83;;;;;;;-145.93;100.00;59239.47;4923780;29;20031;-86
2022/01/07 00:52:29;;;;;;;95.70;61.60;;;;;;;-145.93;100.00;59239.47;4934856;28;20031;-83
2022/01/07 01:09:48;;;;;;;69.13;57.90;;;;;;;-145.93;100.00;59239.47;4842234;29;20410;-86
2022/01/07 01:25:35;;;;;;;71.00;56.83;;;;;;;-145.93;100.00;59239.47;4971083;28;20039;-84
2022/01/07 01:35:37;;;;;;;;;;;;;;;;;;;;;
2022/01/07 01:45:51;;;;;;;68.93;55.00;;;;;;;-145.93;100.00;59239.47;4812908;29;20120;-86
2022/01/07 01:51:55;;;;;;;65.72;53.75;;;;;;;-145.93;100.00;59239.47;4821791;29;19923;-87
2022/01/07 01:54:39;;;;;;;;;;;;;;;-145.93;100.00;59239.47;4775937;29;20052;-86
2022/01/07 01:57:58;;;;;;;69.18;53.53;;;;;;;-145.93;100.00;59239.47;4765309;30;19971;-87
2022/01/07 02:00:38;;;;;;;64.85;53.35;;;;;;;-145.93;100.00;59239.47;4774446;30;20047;-87
2022/01/07 02:26:25;;;;;;;59.10;53.00;;;;;;;-145.93;100.00;59239.47;4837139;29;20044;-87
2022/01/07 03:34:47;;;;;;;55.20;49.28;;;;;;;-145.93;100.00;59239.47;4928047;29;20055;-83
2022/01/07 03:37:12;;;;;;;54.03;48.87;;;;;;;-145.93;100.00;59239.47;4914427;29;20028;-83
2022/01/07 03:39:37;;;;;;;58.27;51.17;;;;;;;-145.93;100.00;59239.47;4915767;29;20024;-83
2022/01/07 03:42:03;;;;;;;59.63;51.47;;;;;;;-145.93;100.00;59239.47;4911853;29;20032;-84
2022/01/07 03:44:28;;;;;;;55.20;49.80;;;;;;;-145.93;100.00;59239.47;4901551;29;20081;-84
2022/01/07 03:46:54;;;;;;;55.30;49.40;;;;;;;-145.93;100.00;59239.47;4931003;29;20060;-83
2022/01/07 03:49:19;;;;;;;54.17;48.73;;;;;;;-145.93;100.00;59239.47;4915391;29;20035;-83
2022/01/07 03:51:44;;;;;;;54.60;49.43;;;;;;;-145.93;100.00;59239.47;4917110;29;20036;-84
2022/01/07 03:54:10;;;;;;;56.47;50.33;;;;;;;-145.93;100.00;59239.47;4914007;29;20035;-84
2022/01/07 03:56:35;;;;;;;54.20;48.83;;;;;;;-145.93;100.00;59239.47;4918317;29;20099;-84
2022/01/07 03:59:01;;;;;;;55.47;49.70;;;;;;;-145.93;100.00;59239.47;4920971;29;20036;-85
2022/01/07 04:01:26;;;;;;;55.03;48.60;;;;;;;-145.93;100.00;59239.47;4919923;29;20470;-83
2022/01/07 04:03:52;;;;;;;55.10;49.23;;;;;;;-145.93;100.00;59239.47;4896327;29;20454;-84
2022/01/07 04:06:20;;;;;;;53.63;48.73;;;;;;;-145.93;100.00;59239.47;4916384;29;20034;-84
2022/01/07 04:08:45;;;;;;;57.78;51.20;;;;;;;-145.93;100.00;59239.47;4922294;29;20031;-83
2022/01/07 04:11:11;;;;;;;55.83;50.05;;;;;;;-145.93;100.00;59239.47;4918326;29;20042;-85
2022/01/07 04:13:36;;;;;;;56.00;50.10;;;;;;;-145.93;100.00;59239.47;4915133;29;20023;-84
2022/01/07 04:16:01;;;;;;;74.63;54.53;;;;;;;-145.93;100.00;59239.47;4925889;29;20032;-84
2022/01/07 04:18:27;;;;;;;73.00;54.53;;;;;;;-145.93;100.00;59239.47;4915553;29;20052;-83
2022/01/07 04:20:52;;;;;;;75.23;54.67;;;;;;;-145.93;100.00;59239.47;4914527;29;20012;-84
2022/01/07 04:23:17;;;;;;;73.53;53.97;;;;;;;-145.93;100.00;59239.47;4913851;29;20068;-83
2022/01/07 04:25:43;;;;;;;83.23;56.57;;;;;;;-145.93;100.00;59239.47;4914104;29;20036;-83
2022/01/07 04:28:08;;;;;;;58.80;50.77;;;;;;;-145.93;100.00;59239.47;4913167;29;20108;-84
2022/01/07 04:30:43;;;;;;;55.67;49.93;;;;;;;-145.93;100.00;59239.47;4922390;29;20547;-85
2022/01/07 04:33:12;;;;;;;54.63;49.08;;;;;;;-145.93;100.00;59239.47;4912519;29;20494;-84
2022/01/07 04:35:38;;;;;;;56.70;50.63;;;;;;;-145.93;100.00;59239.47;4910048;29;20020;-84
2022/01/07 04:38:05;;;;;;;54.50;49.27;;;;;;;-145.93;100.00;59239.47;4890185;29;20039;-83
2022/01/07 04:40:31;;;;;;;56.25;50.08;;;;;;;-145.93;100.00;59239.47;4888495;29;20052;-83
2022/01/07 04:42:57;;;;;;;58.80;51.20;;;;;;;-145.93;100.00;59239.47;4901833;29;20111;-85
2022/01/07 04:45:22;;;;;;;54.10;48.17;;;;;;;-145.93;100.00;59239.47;4908662;29;20032;-85
2022/01/07 04:47:48;;;;;;;54.80;49.83;;;;;;;-145.93;100.00;59239.47;4908224;29;20036;-85
2022/01/07 04:50:16;;;;;;;63.20;50.30;;;;;;;-145.93;100.00;59239.47;4905142;29;20039;-84
2022/01/07 04:52:45;;;;;;;65.05;52.30;;;;;;;-145.93;100.00;59239.47;4922802;29;20013;-84
2022/01/07 04:55:16;;;;;;;55.90;50.15;;;;;;;-145.93;100.00;59239.47;4928830;29;20020;-82
2022/01/07 04:57:43;;;;;;;57.35;49.75;;;;;;;-145.93;100.00;59239.47;4912549;29;20060;-84
2022/01/07 05:00:09;;;;;;;56.53;50.30;;;;;;;-145.93;100.00;59239.47;4906908;29;20024;-83
2022/01/07 05:02:35;;;;;;;56.63;50.55;;;;;;;-145.93;100.00;59239.47;4920177;29;20039;-82
2022/01/07 05:05:00;;;;;;;63.83;52.53;;;;;;;-145.93;100.00;59239.47;4916133;29;20036;-84
2022/01/07 05:07:26;;;;;;;60.07;52.03;;;;;;;-145.93;100.00;59239.47;4910420;29;20035;-85
2022/01/07 05:09:51;;;;;;;59.60;51.27;;;;;;;-145.93;100.00;59239.47;4878690;29;20044;-84
2022/01/07 05:12:17;;;;;;;58.73;51.80;;;;;;;-145.93;100.00;59239.47;4908529;29;20398;-83
2022/01/07 05:14:42;;;;;;;57.07;50.97;;;;;;;-145.93;100.00;59239.47;4902794;29;20028;-82
2022/01/07 05:17:08;;;;;;;59.10;52.67;;;;;;;-145.93;100.00;59239.47;4898778;29;20040;-84
2022/01/07 05:19:33;;;;;;;59.10;52.63;;;;;;;-145.93;100.00;59239.47;4890788;29;20099;-82
2022/01/07 05:21:58;;;;;;;53.77;48.67;;;;;;;-145.93;100.00;59239.47;4915353;29;20270;-83
2022/01/07 05:24:24;;;;;;;61.57;51.57;;;;;;;-145.93;100.00;59239.47;4910915;29;20026;-80
2022/01/07 05:26:49;;;;;;;57.50;51.00;;;;;;;-145.93;100.00;59239.47;4924845;29;20036;-82
2022/01/07 05:29:15;;;;;;;59.47;51.60;;;;;;;-145.93;100.00;59239.47;4924623;29;20087;-83
2022/01/07 05:31:40;;;;;;;62.27;52.13;;;;;;;-145.93;100.00;59239.47;4899281;29;20083;-87
2022/01/07 05:34:05;;;;;;;59.30;52.43;;;;;;;-145.93;100.00;59239.47;4913551;29;20191;-85
2022/01/07 05:36:31;;;;;;;56.63;50.67;;;;;;;-145.93;100.00;59239.47;4914229;29;20405;-85
2022/01/07 05:38:56;;;;;;;57.93;51.77;;;;;;;-145.93;100.00;59239.47;4894622;29;20058;-85
2022/01/07 05:41:21;;;;;;;69.77;53.30;;;;;;;-145.93;100.00;59239.47;4900049;29;20050;-84
2022/01/07 05:43:47;;;;;;;56.50;50.63;;;;;;;-145.93;100.00;59239.47;4896708;29;20035;-84
2022/01/07 05:46:14;;;;;;;60.83;50.63;;;;;;;-145.93;100.00;59239.47;4900790;29;20506;-85
2022/01/07 05:48:40;;;;;;;58.58;52.50;;;;;;;-145.93;100.00;59239.47;4931114;29;20028;-85
2022/01/07 05:51:09;;;;;;;56.47;50.25;;;;;;;-145.93;100.00;59239.47;4922632;29;20016;-84
2022/01/07 05:53:35;;;;;;;57.53;51.58;;;;;;;-145.93;100.00;59239.47;4921044;29;20047;-84
2022/01/07 05:56:00;;;;;;;58.47;52.07;;;;;;;-145.93;100.00;59239.47;4918426;29;20059;-85
2022/01/07 05:58:28;;;;;;;56.40;50.87;;;;;;;-145.93;100.00;59239.47;4907426;29;20047;-84
2022/01/07 06:00:54;;;;;;;57.97;51.92;;;;;;;-145.93;100.00;59239.47;4916746;29;20434;-84
2022/01/07 06:03:19;;;;;;;61.88;53.47;;;;;;;-145.93;100.00;59239.47;4912081;29;20031;-84
2022/01/07 06:05:44;;;;;;;57.17;51.40;;;;;;;-145.93;100.00;59239.47;4914019;29;20522;-84
2022/01/07 06:08:09;;;;;;;60.40;51.57;;;;;;;-145.93;100.00;59239.47;4912404;29;20056;-84
2022/01/07 06:10:35;;;;;;;60.47;52.53;;;;;;;-145.93;100.00;59239.47;4911250;29;20034;-83
2022/01/07 06:13:01;;;;;;;57.97;51.75;;;;;;;-145.93;100.00;59239.47;4917297;29;20020;-83
2022/01/07 06:15:26;;;;;;;56.23;51.00;;;;;;;-145.93;100.00;59239.47;4909735;29;20059;-84
2022/01/07 06:17:51;;;;;;;58.33;52.23;;;;;;;-145.93;100.00;59239.47;4907107;29;20040;-84
2022/01/07 06:20:18;;;;;;;56.87;51.17;;;;;;;-145.93;100.00;59239.47;4893730;29;20035;-84
2022/01/07 06:22:44;;;;;;;71.75;54.60;;;;;;;-145.93;100.00;59239.47;4930547;29;20485;-83
2022/01/07 06:25:09;;;;;;;60.70;52.30;;;;;;;-145.93;100.00;59239.47;4913052;29;20020;-85
2022/01/07 06:27:34;;;;;;;54.97;49.73;;;;;;;-145.93;100.00;59239.47;4910600;29;20020;-84
2022/01/07 06:30:00;;;;;;;57.93;51.60;;;;;;;-145.93;100.00;59239.47;4915470;29;20091;-83
2022/01/07 06:32:25;;;;;;;64.37;52.63;;;;;;;-145.93;100.00;59239.47;4920810;29;20075;-81
2022/01/07 06:34:51;;;;;;;59.67;51.67;;;;;;;-145.93;100.00;59239.47;4926308;29;20126;-83
2022/01/07 06:37:17;;;;;;;64.35;52.97;;;;;;;-145.93;100.00;59239.47;4914449;29;20064;-83
2022/01/07 06:39:42;;;;;;;59.67;52.73;;;;;;;-145.93;100.00;59239.47;4903508;29;20039;-83
2022/01/07 06:42:08;;;;;;;58.70;52.27;;;;;;;-145.93;100.00;59239.47;4925938;29;20040;-83
2022/01/07 06:44:40;;;;;;;57.10;51.57;;;;;;;-145.93;100.00;59239.47;4902639;29;20390;-83
2022/01/07 06:47:06;;;;;;;78.95;56.92;;;;;;;-145.93;100.00;59239.47;4904175;29;20079;-85
2022/01/07 06:49:31;;;;;;;59.35;52.72;;;;;;;-145.93;100.00;59239.47;4886578;29;20130;-84
2022/01/07 06:51:57;;;;;;;59.67;53.03;;;;;;;-145.93;100.00;59239.47;4893361;29;20060;-83
2022/01/07 06:54:23;;;;;;;59.33;52.93;;;;;;;-145.93;100.00;59239.47;4904255;29;20111;-83
2022/01/07 06:56:48;;;;;;;57.72;51.33;;;;;;;-145.93;100.00;59239.47;4891851;29;20286;-83
2022/01/07 06:59:18;;;;;;;57.00;51.00;;;;;;;-145.93;100.00;59239.47;4909669;29;20043;-82
2022/01/07 07:01:50;;;;;;;59.72;52.88;;;;;;;-145.93;100.00;59239.47;4910650;29;20028;-82
2022/01/07 07:04:16;;;;;;;59.63;52.58;;;;;;;-145.93;100.00;59239.47;4918344;29;20055;-82
2022/01/07 07:06:42;;;;;;;73.60;54.35;;;;;;;-145.93;100.00;59239.47;4912594;29;20032;-80
2022/01/07 07:09:07;;;;;;;60.33;52.58;;;;;;;-145.93;100.00;59239.47;4925437;29;20046;-81
2022/01/07 07:11:39;;;;;;;84.53;59.77;;;;;;;-145.93;100.00;59239.47;4922978;29;20075;-82
2022/01/07 07:14:05;;;;;;;56.60;50.97;;;;;;;-145.93;100.00;59239.47;4908136;29;20012;-84
2022/01/07 07:16:31;;;;;;;62.30;54.42;;;;;;;-145.93;100.00;59239.47;4923979;29;20062;-82
2022/01/07 07:18:56;;;;;;;85.70;58.03;;;;;;;-145.93;100.00;59239.47;4910422;29;20036;-80
2022/01/07 07:21:21;;;;;;;60.10;52.00;;;;;;;-145.93;100.00;59239.47;4920880;29;20051;-82
2022/01/07 07:23:47;;;;;;;83.67;56.47;;;;;;;-145.93;100.00;59239.47;4920168;29;20051;-83
2022/01/07 07:26:14;;;;;;;83.38;57.70;;;;;;;-145.93;100.00;59239.47;4897285;29;20023;-80
2022/01/07 07:28:40;;;;;;;78.93;58.05;;;;;;;-145.93;100.00;59239.47;4923160;29;20032;-82
2022/01/07 07:31:13;;;;;;;98.55;61.25;;;;;;;-145.93;100.00;59239.47;4933550;29;20119;-84
2022/01/07 07:36:27;;;;;;;57.90;51.95;;;;;;;-145.93;100.00;59239.47;4917088;29;20039;-85
2022/01/07 07:39:09;;;;;;;56.20;50.38;;;;;;;-145.93;100.00;59239.47;4929738;29;20032;-83
2022/01/07 07:41:37;;;;;;;56.60;51.20;;;;;;;-145.93;100.00;59239.47;4906220;29;20043;-83
2022/01/07 07:44:06;;;;;;;57.90;52.17;;;;;;;-145.93;100.00;59239.47;4910062;29;20490;-82
2022/01/07 07:46:32;;;;;;;59.35;52.95;;;;;;;-145.93;100.00;59239.47;4914283;29;20028;-84
2022/01/07 07:49:00;;;;;;;;;;;;;;;-145.93;100.00;59239.47;4897370;29;20044;-85
2022/01/07 07:51:26;;;;;;;59.92;51.92;;;;;;;-145.93;100.00;59239.47;4921384;29;20293;-85
2022/01/07 07:53:51;;;;;;;59.15;53.13;;;;;;;-145.93;100.00;59239.47;4910303;29;20368;-83
2022/01/07 07:56:17;;;;;;;56.77;50.83;;;;;;;-145.93;100.00;59239.47;4915688;29;20107;-82
2022/01/07 07:58:43;;;;;;;56.30;50.80;;;;;;;-145.93;100.00;59239.47;4910866;29;20039;-83
2022/01/07 08:01:09;;;;;;;56.65;50.83;;;;;;;-145.93;100.00;59239.47;4918921;29;20027;-84
2022/01/07 08:03:34;;;;;;;62.65;52.65;;;;;;;-145.93;100.00;59239.47;4897744;29;20036;-86
2022/01/07 08:06:00;;;;;;;58.73;52.33;;;;;;;-145.93;100.00;59239.47;4926222;29;20039;-82
2022/01/07 08:08:25;;;;;;;64.93;55.57;;;;;;;-145.93;100.00;59239.47;4916151;29;20016;-84
2022/01/07 08:10:55;;;;;;;61.90;52.93;;;;;;;-145.93;100.00;59239.47;4916370;29;20036;-82
2022/01/07 08:13:28;;;;;;;59.60;53.13;;;;;;;-145.93;100.00;59239.47;4907489;29;20607;-82
2022/01/07 08:15:59;;;;;;;67.18;53.75;;;;;;;-145.93;100.00;59239.47;4928663;29;20489;-81
2022/01/07 08:18:28;;;;;;;57.10;51.45;;;;;;;-145.93;100.00;59239.47;4932034;29;20024;-81
2022/01/07 08:20:55;;;;;;;58.15;52.45;;;;;;;-145.93;100.00;59239.47;4922598;29;20038;-82
2022/01/07 08:23:21;;;;;;;58.22;52.50;;;;;;;-145.93;100.00;59239.47;4907328;29;20096;-82
2022/01/07 08:25:46;;;;;;;59.60;53.83;;;;;;;-145.93;100.00;59239.47;4913902;29;20058;-82
2022/01/07 08:28:13;;;;;;;59.17;53.03;;;;;;;-145.93;100.00;59239.47;4929217;29;20701;-82
2022/01/07 08:31:00;;;;;;;58.08;52.08;;;;;;;-145.93;100.00;59239.47;4893188;29;20028;-82
2022/01/07 08:36:09;;;;;;;57.83;51.30;;;;;;;-145.93;100.00;59239.47;4921427;29;20422;-82
2022/01/07 08:38:34;;;;;;;57.33;51.73;;;;;;;-145.93;100.00;59239.47;4926557;29;20032;-82
2022/01/07 08:41:00;;;;;;;57.37;51.50;;;;;;;-145.93;100.00;59239.47;4907499;29;20028;-83
2022/01/07 08:43:25;;;;;;;56.50;51.13;;;;;;;-145.93;100.00;59239.47;4918306;29;20040;-82
2022/01/07 08:45:51;;;;;;;56.97;51.37;;;;;;;-145.93;100.00;59239.47;4915426;29;20366;-81
2022/01/07 08:48:16;;;;;;;56.53;51.03;;;;;;;-145.93;100.00;59239.47;4917527;29;20036;-81
2022/01/07 08:50:44;;;;;;;57.07;51.40;;;;;;;-145.93;100.00;59239.47;4914718;29;20093;-81
2022/01/07 08:53:09;;;;;;;58.67;52.78;;;;;;;-145.93;100.00;59239.47;4937756;29;20026;-81
2022/01/07 08:55:34;;;;;;;56.43;50.87;;;;;;;-145.93;100.00;59239.47;4922063;29;20032;-82
2022/01/07 08:58:00;;;;;;;58.13;52.03;;;;;;;-145.93;100.00;59239.47;4920813;29;20040;-82
2022/01/07 09:00:25;;;;;;;55.23;50.10;;;;;;;-145.93;100.00;59239.47;4912530;29;20036;-83
2022/01/07 09:02:50;;;;;;;66.20;54.33;;;;;;;-145.93;100.00;59239.47;4911882;29;20031;-81
2022/01/07 09:05:16;;;;;;;56.27;50.87;;;;;;;-145.93;100.00;59239.47;4912753;29;20048;-82
2022/01/07 09:07:41;;;;;;;57.50;51.53;;;;;;;-145.93;100.00;59239.47;4914539;29;20024;-82
2022/01/07 09:10:07;;;;;;;56.90;51.40;;;;;;;-145.93;100.00;59239.47;4898231;29;20503;-82
2022/01/07 09:12:32;;;;;;;56.60;51.10;;;;;;;-145.93;100.00;59239.47;4927717;29;20092;-81
2022/01/07 09:14:57;;;;;;;55.90;50.73;;;;;;;-145.93;100.00;59239.47;4907711;29;20032;-82
2022/01/07 09:17:23;;;;;;;54.73;49.80;;;;;;;-145.93;100.00;59239.47;4922424;29;20028;-82
2022/01/07 09:19:48;;;;;;;55.87;50.70;;;;;;;-145.93;100.00;59239.47;4901069;29;20024;-83
2022/01/07 09:22:14;;;;;;;57.37;51.83;;;;;;;-145.93;100.00;59239.47;4897131;29;20040;-82
2022/01/07 09:24:39;;;;;;;55.70;50.60;;;;;;;-145.93;100.00;59239.47;4892069;29;20025;-82
2022/01/07 09:27:05;;;;;;;55.37;50.30;;;;;;;-145.93;100.00;59239.47;4892824;29;20561;-82
2022/01/07 09:29:30;;;;;;;58.50;52.37;;;;;;;-145.93;100.00;59239.47;4920337;29;20047;-82
2022/01/07 09:31:56;;;;;;;56.73;51.33;;;;;;;-145.93;100.00;59239.47;4925729;29;20076;-82
2022/01/07 09:34:21;;;;;;;57.85;51.83;;;;;;;-145.93;100.00;59239.47;4907990;29;20060;-81
2022/01/07 09:36:47;;;;;;;58.23;52.73;;;;;;;-145.93;100.00;59239.47;4929114;29;20070;-81
2022/01/07 09:39:12;;;;;;;56.30;51.00;;;;;;;-145.93;100.00;59239.47;4925997;29;20024;-81
2022/01/07 09:41:38;;;;;;;56.70;51.50;;;;;;;-145.93;100.00;59239.47;4910226;29;20025;-81
2022/01/07 09:44:08;;;;;;;57.93;52.23;;;;;;;-145.93;100.00;59239.47;4921715;29;20076;-80
2022/01/07 09:46:33;;;;;;;57.03;51.47;;;;;;;-145.93;100.00;59239.47;4914839;29;20262;-81
2022/01/07 09:48:59;;;;;;;57.63;52.03;;;;;;;-145.93;100.00;59239.47;4925484;29;20016;-81
2022/01/07 09:51:26;;;;;;;57.00;51.50;;;;;;;-145.93;100.00;59239.47;4926767;29;20025;-79
2022/01/07 09:54:03;;;;;;;56.10;51.03;;;;;;;-145.93;100.00;59239.47;4909385;29;20044;-80
2022/01/07 09:56:28;;;;;;;;;;;;;;;-145.93;100.00;59239.47;4923942;29;20463;-80
2022/01/07 09:58:54;;;;;;;66.63;56.45;;;;;;;-145.93;100.00;59239.47;4913922;29;19911;-80
2022/01/07 10:01:21;;;;;;;60.13;53.83;;;;;;;-145.93;100.00;59239.47;4911158;29;20013;-81
2022/01/07 10:03:49;;;;;;;92.88;63.10;;;;;;;-145.93;100.00;59239.47;4924956;29;20059;-80
2022/01/07 10:06:22;;;;;;;61.55;55.00;;;;;;;-145.93;100.00;59239.47;4916007;29;20115;-79
2022/01/07 10:09:00;;;;;;;72.13;57.03;;;;;;;-145.93;100.00;59239.47;4920756;29;20016;-80
2022/01/07 10:11:27;;;;;;;57.33;51.65;;;;;;;-145.93;100.00;59239.47;4922019;29;20039;-81
2022/01/07 10:14:16;;;;;;;57.83;52.13;;;;;;;-145.93;100.00;59239.47;4910427;29;20497;-80
2022/01/07 10:17:01;;;;;;;58.63;52.90;;;;;;;-145.93;100.00;59239.47;4915916;29;20024;-82
2022/01/07 10:19:41;;;;;;;60.60;53.83;;;;;;;-145.93;100.00;59239.47;4907190;29;20028;-82
2022/01/07 10:22:13;;;;;;;60.08;54.10;;;;;;;-145.93;100.00;59239.47;4892609;29;20060;-85
2022/01/07 10:25:02;;;;;;;59.97;53.78;;;;;;;-145.93;100.00;59239.47;4908675;29;20111;-82
2022/01/07 10:27:37;;;;;;;59.53;53.72;;;;;;;-145.93;100.00;59239.47;4890583;29;20039;-81
2022/01/07 10:30:13;;;;;;;57.67;52.08;;;;;;;-145.93;100.00;59239.47;4899765;29;20028;-83
2022/01/07 10:32:39;;;;;;;71.82;57.63;;;;;;;-145.93;100.00;59239.47;4912194;29;20045;-81
2022/01/07 10:35:09;;;;;;;59.80;53.53;;;;;;;-145.93;100.00;59239.47;4925987;29;20035;-82
2022/01/07 10:37:54;;;;;;;59.83;53.75;;;;;;;-145.93;100.00;59239.47;4912383;29;20271;-81
2022/01/07 10:40:38;;;;;;;58.75;53.03;;;;;;;-145.93;100.00;59239.47;4939930;29;20027;-79
2022/01/07 10:43:21;;;;;;;58.75;52.92;;;;;;;-145.93;100.00;59239.47;4924506;29;20036;-82
2022/01/07 10:45:49;;;;;;;60.60;54.38;;;;;;;-145.93;100.00;59239.47;4919915;29;20028;-81
2022/01/07 10:48:15;;;;;;;58.30;52.67;;;;;;;-145.93;100.00;59239.47;4917731;29;20028;-81
2022/01/07 10:50:46;;;;;;;59.33;52.95;;;;;;;-145.93;100.00;59239.47;4914006;29;20020;-82
2022/01/07 10:53:25;;;;;;;60.92;54.55;;;;;;;-145.93;100.00;59239.47;4897969;29;20028;-81
2022/01/07 10:56:00;;;;;;;63.45;53.33;;;;;;;-145.93;100.00;59239.47;4909566;29;20447;-81
2022/01/07 10:58:26;;;;;;;61.58;54.85;;;;;;;-145.93;100.00;59239.47;4933847;29;20032;-81
2022/01/07 11:00:51;;;;;;;59.38;53.75;;;;;;;-145.93;100.00;59239.47;4908966;29;20059;-82
2022/01/07 11:03:17;;;;;;;59.93;53.90;;;;;;;-145.93;100.00;59239.47;4914797;29;20286;-82
2022/01/07 11:05:42;;;;;;;59.20;53.43;;;;;;;-145.93;100.00;59239.47;4913396;29;20020;-82
2022/01/07 11:08:08;;;;;;;60.50;54.40;;;;;;;-145.93;100.00;59239.47;4892390;29;20052;-79
2022/01/07 11:10:36;;;;;;;61.00;54.47;;;;;;;-145.93;100.00;59239.47;4925977;29;20466;-82
2022/01/07 11:13:02;;;;;;;61.03;54.65;;;;;;;-145.93;100.00;59239.47;4907408;29;20466;-83
2022/01/07 11:15:27;;;;;;;60.83;54.72;;;;;;;-145.93;100.00;59239.47;4913834;29;20028;-82
2022/01/07 11:17:53;;;;;;;63.40;56.37;;;;;;;-145.93;100.00;59239.47;4925131;29;20036;-83
2022/01/07 11:20:24;;;;;;;63.30;56.53;;;;;;;-145.93;100.00;59239.47;4919969;29;20058;-81
2022/01/07 11:22:50;;;;;;;72.95;58.92;;;;;;;-145.93;100.00;59239.47;4896994;29;20115;-83
2022/01/07 11:25:16;;;;;;;62.38;56.03;;;;;;;-145.93;100.00;59239.47;4910461;29;20111;-81
2022/01/07 11:27:57;;;;;;;61.13;54.77;;;;;;;-145.93;100.00;59239.47;4923231;29;20066;-83
2022/01/07 11:30:28;;;;;;;63.10;56.22;;;;;;;-145.93;100.00;59239.47;4915926;29;20036;-82
2022/01/07 11:32:54;;;;;;;68.50;58.35;;;;;;;-145.93;100.00;59239.47;4913437;29;20035;-82
2022/01/07 11:35:19;;;;;;;61.25;54.95;;;;;;;-145.93;100.00;59239.47;4907127;29;20031;-82
2022/01/07 11:38:00;;;;;;;64.80;57.30;;;;;;;-145.93;100.00;59239.47;4938378;29;20036;-81
2022/01/07 11:40:28;;;;;;;65.20;58.30;;;;;;;-145.93;100.00;59239.47;4920062;29;20044;-82
2022/01/07 11:42:53;;;;;;;70.63;58.58;;;;;;;-145.93;100.00;59239.47;4907347;29;20122;-81
2022/01/07 11:45:34;;;;;;;63.40;56.87;;;;;;;-145.93;100.00;59239.47;4910090;29;20043;-83
2022/01/07 11:48:23;;;;;;;66.50;58.78;;;;;;;-145.93;100.00;59239.47;4920144;29;20027;-83
2022/01/07 11:50:54;;;;;;;63.60;56.72;;;;;;;-145.93;100.00;59239.47;4923135;29;20100;-82
2022/01/07 11:53:23;;;;;;;65.97;58.75;;;;;;;-145.93;100.00;59239.47;4933649;29;20036;-83
2022/01/07 11:55:52;;;;;;;63.63;57.00;;;;;;;-145.93;100.00;59239.47;4914993;29;20131;-82
2022/01/07 11:58:17;;;;;;;66.32;56.70;;;;;;;-145.93;100.00;59239.47;4909117;29;20191;-81
2022/01/07 12:00:57;;;;;;;71.05;57.70;;;;;;;-145.93;100.00;59239.47;4920221;29;20755;-82
2022/01/07 12:03:35;;;;;;;66.90;58.72;;;;;;;-145.93;100.00;59239.47;4893551;29;20036;-84
2022/01/07 12:06:21;;;;;;;65.60;58.33;;;;;;;-145.93;100.00;59239.47;4927800;29;20068;-82
2022/01/07 12:09:19;;;;;;;65.28;58.13;;;;;;;-145.93;100.00;59239.47;4909692;29;20095;-84
2022/01/07 12:11:53;;;;;;;;;;;;;;;-145.93;100.00;59239.47;4897403;29;20076;-82
2022/01/07 12:14:24;;;;;;;71.72;57.95;;;;;;;-145.93;100.00;59239.47;4907240;29;19937;-81
2022/01/07 12:16:52;;;;;;;69.07;58.95;;;;;;;-145.93;100.00;59239.47;4915883;29;20036;-82
2022/01/07 12:19:23;;;;;;;68.45;59.47;;;;;;;-145.93;100.00;59239.47;4908433;29;20028;-84
2022/01/07 12:21:53;;;;;;;70.28;57.92;;;;;;;-145.93;100.00;59239.47;4922543;29;20496;-82
2022/01/07 12:24:37;;;;;;;64.95;57.90;;;;;;;-145.93;100.00;59239.47;4909703;29;20091;-83
2022/01/07 12:27:16;;;;;;;68.68;58.80;;;;;;;-145.93;100.00;59239.47;4902005;29;20032;-82
2022/01/07 12:29:52;;;;;;;64.40;57.35;;;;;;;-145.93;100.00;59239.47;4891689;29;20025;-84
2022/01/07 12:32:18;;;;;;;70.07;59.35;;;;;;;-145.93;100.00;59239.47;4892393;29;20051;-80
2022/01/07 12:34:46;;;;;;;64.65;57.58;;;;;;;-145.93;100.00;59239.47;4911318;29;20027;-81
2022/01/07 12:37:22;;;;;;;68.15;60.20;;;;;;;-145.93;100.00;59239.47;4910480;29;20032;-84
2022/01/07 12:39:50;;;;;;;68.70;58.72;;;;;;;-145.93;100.00;59239.47;4910422;29;20031;-82
2022/01/07 12:42:16;;;;;;;70.32;59.97;;;;;;;-145.93;100.00;59239.47;4901420;29;20489;-83
2022/01/07 12:44:43;;;;;;;65.63;58.60;;;;;;;-145.93;100.00;59239.47;4901186;29;20080;-83
2022/01/07 12:47:13;;;;;;;72.15;59.88;;;;;;;-145.93;100.00;59239.47;4912338;29;20270;-82
2022/01/07 12:49:41;;;;;;;64.13;57.40;;;;;;;-145.93;100.00;59239.47;4905002;29;20056;-82
2022/01/07 12:52:26;;;;;;;66.25;58.88;;;;;;;-145.93;100.00;59239.47;4905151;29;20028;-81
2022/01/07 12:55:03;;;;;;;71.43;59.25;;;;;;;-145.93;100.00;59239.47;4931350;29;20035;-81
2022/01/07 12:57:37;;;;;;;70.93;59.92;;;;;;;-145.93;100.00;59239.47;4896304;29;20064;-83
2022/01/07 13:00:26;;;;;;;67.78;59.35;;;;;;;-145.93;100.00;59239.47;4903060;29;20043;-81
2022/01/07 13:03:00;;;;;;;74.30;60.05;;;;;;;-145.93;100.00;59239.47;4933152;29;20230;-82
2022/01/07 13:05:31;;;;;;;65.05;57.00;;;;;;;-145.93;100.00;59239.47;4925259;29;20028;-82
2022/01/07 13:08:17;;;;;;;65.53;58.35;;;;;;;-145.93;100.00;59239.47;4918157;29;20069;-82
2022/01/07 13:10:45;;;;;;;64.55;57.90;;;;;;;-145.93;100.00;59239.47;4910338;29;20056;-81
2022/01/07 13:13:12;;;;;;;64.78;57.90;;;;;;;-145.93;100.00;59239.47;4907018;29;20024;-82
2022/01/07 13:15:41;;;;;;;66.75;56.95;;;;;;;-145.93;100.00;59239.47;4897445;29;20107;-83
2022/01/07 13:18:14;;;;;;;66.20;59.15;;;;;;;-145.93;100.00;59239.47;4913292;29;20052;-82
2022/01/07 13:20:39;;;;;;;68.07;57.88;;;;;;;-145.93;100.00;59239.47;4894758;29;20032;-83
2022/01/07 13:23:04;;;;;;;67.37;57.30;;;;;;;-145.93;100.00;59239.47;4908339;29;20032;-82
2022/01/07 13:25:30;;;;;;;63.70;57.00;;;;;;;-145.93;100.00;59239.47;4913623;29;20076;-83
2022/01/07 13:27:55;;;;;;;67.70;58.67;;;;;;;-145.93;100.00;59239.47;4895975;29;20028;-82
2022/01/07 13:30:44;;;;;;;63.63;56.80;;;;;;;-145.93;100.00;59239.47;4911408;29;20032;-82
2022/01/07 13:33:11;;;;;;;75.78;58.50;;;;;;;-145.93;100.00;59239.47;4905445;29;20059;-83
2022/01/07 13:35:37;;;;;;;68.30;60.65;;;;;;;-145.93;100.00;59239.47;4913559;29;20047;-84
2022/01/07 13:38:03;;;;;;;;;;;;;;;-145.93;100.00;59239.47;4911044;29;20118;-82
2022/01/07 13:40:30;;;;;;;73.28;59.75;;;;;;;-145.93;100.00;59239.47;4906612;29;19947;-83
2022/01/07 13:43:05;;;;;;;;;;;;;;;-145.93;100.00;59239.47;4910364;29;20004;-82
2022/01/07 13:45:30;;;;;;;67.22;57.35;;;;;;;-145.93;100.00;59239.47;4924021;29;19919;-79
2022/01/07 13:48:04;;;;;;;74.50;59.43;;;;;;;-145.93;100.00;59239.47;4944939;29;20125;-80
2022/01/07 13:50:31;;;;;;;71.97;60.30;;;;;;;-145.93;100.00;59239.47;4908763;29;20012;-81
2022/01/07 13:52:57;;;;;;;76.75;60.47;;;;;;;-145.93;100.00;59239.47;4922708;29;20017;-83
2022/01/07 13:55:31;;;;;;;64.43;57.53;;;;;;;-145.93;100.00;59239.47;4935242;29;20055;-82
2022/01/07 13:58:18;;;;;;;71.00;58.75;;;;;;;-145.93;100.00;59239.47;4900005;29;20131;-81
2022/01/07 14:00:45;;;;;;;68.70;58.38;;;;;;;-145.93;100.00;59239.47;4906952;29;20027;-83
2022/01/07 14:03:13;;;;;;;65.53;58.70;;;;;;;-145.93;100.00;59239.47;4890075;29;20072;-83